Time;durP1;ratioP1;P1;durP2;ratioP2;P2;SDS_P1;SDS_P2;PMS_P1;PMS_P2;Temp;Humidity;BMP_temperature;BMP_pressure;BME280_temperature;BME280_humidity;BME280_pressure;Samples;Min_cycle;Max_cycle;Signal;HPM_P1;HPM_P2
2024/04/08 00:01:07;;;;;;;2.80;1.80;;;;;;;16.74;67.48;96874.54;108824;1265;22925;-74
2024/04/08 00:03:58;;;;;;;3.60;2.10;;;;;;;16.77;67.64;96867.51;108798;1265;22974;-74
2024/04/08 00:06:29;;;;;;;2.70;1.50;;;;;;;16.83;67.43;96877.50;108818;1272;22527;-74
2024/04/08 00:09:00;;;;;;;2.20;1.70;;;;;;;16.86;67.34;96870.51;108793;1250;22526;-74
2024/04/08 00:11:31;;;;;;;5.00;2.20;;;;;;;16.88;67.23;96867.48;108853;1265;23274;-74
2024/04/08 00:14:02;;;;;;;4.00;2.30;;;;;;;16.89;67.27;96864.03;108833;1272;22520;-75
2024/04/08 00:16:33;;;;;;;2.70;1.70;;;;;;;16.86;67.00;96868.14;108869;1265;22946;-74
2024/04/08 00:19:04;;;;;;;3.00;1.90;;;;;;;16.82;67.38;96863.07;108826;1272;22533;-74
2024/04/08 00:21:34;;;;;;;3.60;2.00;;;;;;;16.83;67.23;96868.17;108828;1272;25292;-75
2024/04/08 00:24:07;;;;;;;1.80;1.40;;;;;;;16.82;67.26;96867.66;108837;1271;23799;-75
2024/04/08 00:26:38;;;;;;;2.40;1.70;;;;;;;16.80;67.35;96865.97;108884;1266;22546;-75
2024/04/08 00:29:11;;;;;;;3.90;2.00;;;;;;;16.78;67.31;96864.42;108808;1272;22528;-75
2024/04/08 00:31:41;;;;;;;5.40;2.00;;;;;;;16.78;67.40;96865.61;108787;1272;22516;-75
2024/04/08 00:34:12;;;;;;;2.30;1.60;;;;;;;16.75;67.51;96855.34;108808;1272;22495;-74
2024/04/08 00:36:45;;;;;;;2.70;1.80;;;;;;;16.76;67.62;96856.98;108829;1265;22509;-75
2024/04/08 00:39:15;;;;;;;3.30;1.70;;;;;;;16.75;67.51;96862.19;108849;1272;22540;-74
2024/04/08 00:41:46;;;;;;;4.20;1.70;;;;;;;16.77;67.54;96861.02;108832;1265;24252;-74
2024/04/08 00:44:17;;;;;;;3.50;2.00;;;;;;;16.76;67.41;96861.33;108808;1268;22550;-75
2024/04/08 00:46:48;;;;;;;2.80;2.00;;;;;;;16.73;67.39;96864.45;108821;1268;24183;-75
2024/04/08 00:49:20;;;;;;;3.50;1.90;;;;;;;16.68;67.52;96863.19;108764;1265;22619;-74
2024/04/08 00:51:51;;;;;;;2.50;1.80;;;;;;;16.64;67.75;96866.51;108822;1272;24227;-75
2024/04/08 00:54:23;;;;;;;3.40;2.20;;;;;;;16.60;67.69;96864.61;108787;1265;22529;-74
2024/04/08 00:56:57;;;;;;;3.00;1.70;;;;;;;16.55;67.80;96862.49;108843;1272;22562;-75
2024/04/08 00:59:29;;;;;;;6.90;1.80;;;;;;;16.52;68.09;96865.38;108832;1272;25493;-74
2024/04/08 01:02:00;;;;;;;4.20;2.00;;;;;;;16.49;68.09;96860.11;108786;1268;22954;-74
2024/04/08 01:04:32;;;;;;;3.30;2.40;;;;;;;16.44;68.14;96857.29;108740;1272;24259;-75
2024/04/08 01:07:03;;;;;;;4.30;2.10;;;;;;;16.38;68.27;96864.01;108773;1272;24914;-75
2024/04/08 01:09:34;;;;;;;4.40;1.90;;;;;;;16.35;68.45;96861.26;108792;1265;24210;-74
2024/04/08 01:12:06;;;;;;;4.10;2.30;;;;;;;16.33;68.54;96865.10;108781;1272;22572;-75
2024/04/08 01:14:37;;;;;;;3.70;2.10;;;;;;;16.28;68.53;96862.38;108824;1266;22572;-74
2024/04/08 01:17:08;;;;;;;6.20;2.20;;;;;;;16.26;68.66;96866.25;108842;1272;24211;-75
2024/04/08 01:19:41;;;;;;;4.10;2.10;;;;;;;16.24;68.56;96866.81;108828;1272;23997;-75
2024/04/08 01:22:12;;;;;;;3.20;1.90;;;;;;;16.23;68.51;96871.84;108763;1272;24211;-75
2024/04/08 01:24:44;;;;;;;3.70;2.70;;;;;;;16.24;68.49;96869.17;108789;1273;22632;-75
2024/04/08 01:27:14;;;;;;;3.70;2.80;;;;;;;16.24;68.39;96871.53;108748;1272;24242;-75
2024/04/08 01:29:45;;;;;;;3.20;2.00;;;;;;;16.19;68.48;96869.90;108700;1272;208294;-75
2024/04/08 01:32:18;;;;;;;4.80;1.80;;;;;;;16.18;68.47;96871.31;108807;1266;24242;-75
2024/04/08 01:34:49;;;;;;;2.90;1.80;;;;;;;16.20;68.46;96873.95;108793;1272;26727;-75
2024/04/08 01:37:20;;;;;;;4.70;2.10;;;;;;;16.24;68.49;96872.51;108836;1272;22571;-75
2024/04/08 01:39:50;;;;;;;4.30;2.20;;;;;;;16.27;68.27;96865.88;108826;1272;22519;-75
2024/04/08 01:42:21;;;;;;;4.00;2.30;;;;;;;16.28;68.10;96866.35;108813;1272;22516;-75
2024/04/08 01:44:52;;;;;;;3.10;1.90;;;;;;;16.27;68.06;96869.40;108790;1269;25901;-75
2024/04/08 01:47:23;;;;;;;5.00;2.10;;;;;;;16.31;67.86;96869.19;108836;1272;22543;-75
2024/04/08 01:49:56;;;;;;;3.20;2.20;;;;;;;16.35;67.74;96866.71;108843;1268;25327;-75
2024/04/08 01:52:27;;;;;;;4.70;2.40;;;;;;;16.37;67.54;96865.27;108816;1266;22540;-74
2024/04/08 01:54:58;;;;;;;4.20;2.50;;;;;;;16.36;67.55;96864.85;108787;1269;23715;-75
2024/04/08 01:57:29;;;;;;;3.30;2.20;;;;;;;16.37;67.48;96864.98;108829;1266;22522;-75
2024/04/08 02:00:00;;;;;;;3.20;1.90;;;;;;;16.38;67.34;96864.01;108796;1266;22517;-75
2024/04/08 02:02:31;;;;;;;4.20;2.40;;;;;;;16.38;67.29;96862.88;108816;1272;22526;-75
2024/04/08 02:05:02;;;;;;;3.40;1.90;;;;;;;16.37;67.27;96859.16;108810;1268;25408;-75
2024/04/08 02:07:33;;;;;;;2.40;2.00;;;;;;;16.36;67.29;96862.88;108851;1272;27134;-74
2024/04/08 02:10:05;;;;;;;3.90;1.70;;;;;;;16.40;67.26;96859.57;108802;1268;22540;-75
2024/04/08 02:12:36;;;;;;;3.90;2.30;;;;;;;16.43;67.12;96855.70;108792;1266;22659;-75
2024/04/08 02:15:08;;;;;;;2.50;2.00;;;;;;;16.45;67.08;96855.55;108807;1266;22509;-75
2024/04/08 02:17:39;;;;;;;2.90;1.90;;;;;;;16.44;66.89;96860.88;108852;1270;23779;-75
2024/04/08 02:20:11;;;;;;;4.20;2.40;;;;;;;16.39;66.92;96859.11;108833;1271;26138;-75
2024/04/08 02:22:42;;;;;;;2.20;1.60;;;;;;;16.36;67.05;96859.41;108845;1266;23970;-75
2024/04/08 02:25:12;;;;;;;3.90;1.90;;;;;;;16.35;67.09;96853.17;108755;1271;22516;-75
2024/04/08 02:27:43;;;;;;;2.90;2.00;;;;;;;16.33;66.99;96844.60;108775;1271;22511;-75
2024/04/08 02:30:14;;;;;;;2.50;1.80;;;;;;;16.30;67.08;96845.30;108819;1268;22506;-75
2024/04/08 02:32:45;;;;;;;5.00;1.90;;;;;;;16.28;67.12;96843.50;108875;1271;22534;-75
2024/04/08 02:35:16;;;;;;;5.70;2.20;;;;;;;16.23;67.18;96844.94;108771;1271;22579;-75
2024/04/08 02:37:47;;;;;;;2.60;1.80;;;;;;;16.19;67.39;96837.70;108846;1272;22524;-75
2024/04/08 02:40:18;;;;;;;2.50;1.70;;;;;;;16.16;67.40;96836.27;108835;1271;22520;-75
2024/04/08 02:42:48;;;;;;;2.40;1.50;;;;;;;16.14;67.55;96833.43;108792;1271;22541;-75
2024/04/08 02:45:19;;;;;;;3.40;2.40;;;;;;;16.15;67.60;96831.39;108779;1272;22554;-74
2024/04/08 02:47:49;;;;;;;5.10;1.90;;;;;;;16.14;67.77;96827.70;108831;1250;22517;-74
2024/04/08 02:50:20;;;;;;;3.20;2.00;;;;;;;16.13;67.68;96831.28;108764;1268;22524;-75
2024/04/08 02:52:53;;;;;;;2.80;1.80;;;;;;;16.08;67.73;96830.46;108793;1269;25461;-75
2024/04/08 02:55:24;;;;;;;4.00;1.90;;;;;;;16.03;67.85;96837.48;108850;1271;23916;-75
2024/04/08 02:57:57;;;;;;;2.80;2.10;;;;;;;16.01;68.12;96828.99;108848;1271;22523;-74
2024/04/08 03:00:27;;;;;;;4.60;1.80;;;;;;;15.97;68.32;96834.95;108833;1265;22519;-74
2024/04/08 03:02:58;;;;;;;3.30;2.00;;;;;;;15.93;68.49;96834.27;108832;1267;25376;-74
2024/04/08 03:05:30;;;;;;;4.00;1.70;;;;;;;15.91;68.46;96835.19;108769;1272;25068;-75
2024/04/08 03:08:01;;;;;;;2.90;1.90;;;;;;;15.89;68.49;96829.73;108788;1269;22517;-75
2024/04/08 03:10:32;;;;;;;2.80;1.70;;;;;;;15.90;68.61;96830.80;108789;1265;23721;-75
2024/04/08 03:13:03;;;;;;;2.50;1.90;;;;;;;15.92;68.56;96829.31;108754;1272;22528;-74
2024/04/08 03:15:33;;;;;;;1.60;1.50;;;;;;;15.93;68.47;96823.56;108791;1271;25231;-74
2024/04/08 03:18:06;;;;;;;2.50;1.60;;;;;;;15.89;68.40;96826.48;108818;1272;22531;-74
2024/04/08 03:20:37;;;;;;;3.00;1.70;;;;;;;15.87;68.62;96821.78;108825;1268;22517;-75
2024/04/08 03:23:07;;;;;;;2.70;1.80;;;;;;;15.89;68.49;96819.91;108807;1272;22601;-75
2024/04/08 03:25:39;;;;;;;3.30;1.50;;;;;;;15.88;68.53;96811.15;108810;1269;26456;-74
2024/04/08 03:28:10;;;;;;;2.50;1.80;;;;;;;15.88;68.46;96808.33;108833;1272;25132;-74
2024/04/08 03:30:40;;;;;;;2.80;1.90;;;;;;;15.89;68.53;96808.95;108824;1265;25227;-75
2024/04/08 03:33:11;;;;;;;2.30;1.70;;;;;;;15.87;68.50;96803.98;108806;1271;22512;-74
2024/04/08 03:35:41;;;;;;;2.50;1.80;;;;;;;15.87;68.52;96805.84;108818;1265;22508;-75
2024/04/08 03:38:12;;;;;;;2.30;1.70;;;;;;;15.89;68.50;96799.52;108822;1272;24195;-75
2024/04/08 03:40:42;;;;;;;3.60;1.80;;;;;;;15.91;68.46;96800.46;108798;1271;25949;-74
2024/04/08 03:43:13;;;;;;;3.50;2.20;;;;;;;15.89;68.52;96799.04;108774;1272;22506;-74
2024/04/08 03:45:51;;;;;;;3.00;1.70;;;;;;;15.87;68.48;96796.65;108807;1266;23992;-74
2024/04/08 03:48:24;;;;;;;2.60;1.70;;;;;;;15.84;68.52;96793.69;108805;1256;22525;-74
2024/04/08 03:50:55;;;;;;;2.30;1.70;;;;;;;15.87;68.67;96794.42;108812;1272;22798;-74
2024/04/08 03:53:26;;;;;;;3.80;2.00;;;;;;;15.90;68.58;96793.52;108801;1272;22516;-74
2024/04/08 03:56:06;;;;;;;2.90;1.80;;;;;;;15.90;68.55;96796.14;108790;1272;22527;-75
2024/04/08 03:58:38;;;;;;;3.50;2.00;;;;;;;15.92;68.52;96795.21;108761;1268;22528;-74
2024/04/08 04:01:09;;;;;;;4.80;1.80;;;;;;;15.88;68.54;96787.63;108756;1272;22521;-74
2024/04/08 04:03:40;;;;;;;2.30;1.60;;;;;;;15.85;68.72;96788.77;108814;1265;22524;-74
2024/04/08 04:06:11;;;;;;;2.50;1.70;;;;;;;15.82;68.79;96793.75;108812;1270;22516;-74
2024/04/08 04:08:41;;;;;;;4.30;1.90;;;;;;;15.80;68.73;96794.55;108770;1273;22725;-74
2024/04/08 04:11:13;;;;;;;3.50;1.70;;;;;;;15.77;68.80;96798.91;108753;1266;25218;-74
2024/04/08 04:13:43;;;;;;;3.50;1.80;;;;;;;15.73;68.88;96802.15;108782;1267;22554;-74
2024/04/08 04:16:14;;;;;;;3.50;1.60;;;;;;;15.65;69.02;96801.55;108757;1273;23296;-74
2024/04/08 04:18:44;;;;;;;5.00;1.90;;;;;;;15.59;69.25;96806.66;108726;1267;24207;-74
2024/04/08 04:21:15;;;;;;;3.10;1.70;;;;;;;15.52;69.42;96804.95;108753;1273;25266;-75
2024/04/08 04:23:46;;;;;;;3.70;2.10;;;;;;;15.51;69.43;96810.17;108789;1252;22515;-74
2024/04/08 04:26:16;;;;;;;2.70;1.90;;;;;;;15.50;69.39;96811.41;108785;1272;22519;-75
2024/04/08 04:28:47;;;;;;;2.30;1.50;;;;;;;15.51;69.37;96812.02;108809;1272;22527;-74
2024/04/08 04:31:18;;;;;;;3.30;1.90;;;;;;;15.54;69.37;96811.54;108757;1272;22511;-74
2024/04/08 04:33:48;;;;;;;3.20;2.00;;;;;;;15.59;69.35;96815.48;108761;1265;22576;-74
2024/04/08 04:36:19;;;;;;;3.00;1.90;;;;;;;15.66;69.24;96820.23;108785;1273;26432;-74
2024/04/08 04:38:52;;;;;;;3.40;1.90;;;;;;;15.74;69.20;96814.58;108779;1273;22514;-75
2024/04/08 04:41:23;;;;;;;6.70;2.10;;;;;;;15.83;69.08;96810.59;108774;1271;24181;-74
2024/04/08 04:43:53;;;;;;;4.60;2.10;;;;;;;15.91;68.98;96812.60;108732;1272;22756;-74
2024/04/08 04:46:24;;;;;;;4.30;2.10;;;;;;;15.94;68.91;96810.45;108817;1272;25269;-75
2024/04/08 04:48:55;;;;;;;4.20;2.10;;;;;;;16.01;68.80;96811.57;108770;1271;23010;-74
2024/04/08 04:51:25;;;;;;;3.60;1.90;;;;;;;16.09;68.64;96808.19;108791;1272;23870;-74
2024/04/08 04:53:56;;;;;;;3.30;2.10;;;;;;;16.16;68.39;96804.99;108805;1269;22644;-74
2024/04/08 04:56:26;;;;;;;3.60;2.00;;;;;;;16.21;68.28;96806.52;108819;1272;26597;-74
2024/04/08 04:58:57;;;;;;;2.40;1.70;;;;;;;16.30;68.07;96809.04;108787;1265;22515;-75
2024/04/08 05:01:27;;;;;;;3.20;1.50;;;;;;;16.46;67.89;96810.14;108821;1268;23731;-74
2024/04/08 05:03:58;;;;;;;6.10;2.10;;;;;;;16.67;67.29;96802.02;108718;1272;22519;-74
2024/04/08 05:06:29;;;;;;;4.00;2.00;;;;;;;16.87;66.86;96806.25;108676;1272;24966;-75
2024/04/08 05:09:00;;;;;;;3.10;2.10;;;;;;;17.08;65.98;96807.05;108751;1272;22516;-74
2024/04/08 05:11:30;;;;;;;3.20;1.40;;;;;;;17.34;65.65;96803.73;108718;1272;24959;-75
2024/04/08 05:14:01;;;;;;;2.30;1.50;;;;;;;17.59;64.24;96802.25;108681;1265;24002;-74
2024/04/08 05:16:32;;;;;;;3.30;1.50;;;;;;;17.71;62.94;96798.73;108684;1265;24109;-74
2024/04/08 05:19:03;;;;;;;3.20;1.80;;;;;;;17.87;62.35;96802.19;108686;1272;22578;-74
2024/04/08 05:21:34;;;;;;;2.60;1.40;;;;;;;18.17;62.33;96805.02;108677;1266;23709;-74
2024/04/08 05:24:05;;;;;;;2.70;1.50;;;;;;;18.47;61.20;96804.70;108675;1267;22979;-75
2024/04/08 05:26:38;;;;;;;3.50;2.00;;;;;;;19.17;60.39;96802.84;108711;1271;23023;-74
2024/04/08 05:29:08;;;;;;;2.10;1.60;;;;;;;20.03;58.89;96810.30;108725;1269;22530;-74
2024/04/08 05:31:39;;;;;;;2.50;1.60;;;;;;;20.45;55.89;96808.23;108714;1272;22524;-75
2024/04/08 05:34:12;;;;;;;2.00;1.40;;;;;;;20.65;55.91;96815.08;108703;1272;23287;-75
2024/04/08 05:36:43;;;;;;;2.50;1.50;;;;;;;21.27;55.30;96814.92;108666;1272;24338;-75
2024/04/08 05:39:13;;;;;;;3.60;1.50;;;;;;;21.64;52.85;96810.05;108688;1272;22547;-75
2024/04/08 05:41:44;;;;;;;2.30;1.70;;;;;;;21.42;53.12;96810.58;108642;1272;24255;-75
2024/04/08 05:44:14;;;;;;;2.40;1.80;;;;;;;21.56;53.30;96815.59;108744;1272;22533;-75
2024/04/08 05:46:45;;;;;;;2.20;1.40;;;;;;;21.77;52.83;96815.88;108740;1267;22525;-75
2024/04/08 05:49:16;;;;;;;2.30;1.50;;;;;;;22.05;52.09;96812.06;108646;1266;24300;-75
2024/04/08 05:51:47;;;;;;;3.00;1.30;;;;;;;22.47;51.47;96814.02;108664;1273;26588;-75
2024/04/08 05:54:17;;;;;;;3.00;1.80;;;;;;;23.15;49.13;96808.83;108657;1272;22519;-75
2024/04/08 05:56:48;;;;;;;2.80;1.40;;;;;;;23.44;48.57;96812.36;108709;1272;24186;-75
2024/04/08 05:59:18;;;;;;;2.60;1.60;;;;;;;23.84;47.09;96806.59;108712;1266;22518;-75
2024/04/08 06:01:49;;;;;;;2.10;1.40;;;;;;;24.07;46.18;96800.50;108650;1266;22546;-75
2024/04/08 06:04:19;;;;;;;3.80;1.60;;;;;;;24.48;47.26;96798.69;108642;1251;22535;-75
2024/04/08 06:06:50;;;;;;;2.70;1.60;;;;;;;24.84;44.82;96797.92;108767;1272;23065;-75
2024/04/08 06:09:21;;;;;;;4.00;1.60;;;;;;;25.11;45.32;96801.80;108706;1272;25238;-75
2024/04/08 06:11:51;;;;;;;2.00;1.80;;;;;;;25.44;44.31;96796.16;108741;1272;23788;-75
2024/04/08 06:14:24;;;;;;;3.20;1.60;;;;;;;25.53;43.49;96796.34;108677;1269;22517;-75
2024/04/08 06:16:58;;;;;;;2.20;1.60;;;;;;;25.90;43.61;96802.58;108726;1272;22527;-75
2024/04/08 06:19:31;;;;;;;1.80;1.30;;;;;;;26.46;43.89;96802.56;108741;1272;22526;-76
2024/04/08 06:22:02;;;;;;;2.30;1.20;;;;;;;26.78;42.24;96805.66;108686;1270;25578;-75
2024/04/08 06:24:33;;;;;;;2.40;1.60;;;;;;;26.49;41.33;96796.29;108706;1269;22672;-75
2024/04/08 06:27:04;;;;;;;2.20;1.50;;;;;;;25.82;41.83;96800.64;108673;1270;22677;-76
2024/04/08 06:29:35;;;;;;;2.40;1.40;;;;;;;25.68;42.29;96802.11;108720;1272;22524;-75
2024/04/08 06:32:07;;;;;;;4.30;1.70;;;;;;;25.70;42.11;96801.52;108698;1266;24250;-76
2024/04/08 06:34:40;;;;;;;3.00;1.50;;;;;;;25.56;41.88;96801.02;108670;1271;22533;-75
2024/04/08 06:37:10;;;;;;;2.40;1.70;;;;;;;25.55;41.68;96798.62;108730;1266;28716;-76
2024/04/08 06:39:41;;;;;;;3.20;1.90;;;;;;;25.63;41.73;96799.96;108724;1260;22527;-76
2024/04/08 06:42:18;;;;;;;1.70;1.10;;;;;;;26.02;42.02;96804.48;108713;1272;24123;-75
2024/04/08 06:44:53;;;;;;;2.20;1.50;;;;;;;26.36;40.46;96804.02;108699;1271;22719;-75
2024/04/08 06:47:27;;;;;;;1.70;1.40;;;;;;;26.08;40.62;96800.98;108706;1271;22521;-75
2024/04/08 06:49:58;;;;;;;2.60;1.40;;;;;;;25.93;40.75;96799.91;108702;1272;22515;-75
2024/04/08 06:52:28;;;;;;;1.80;1.20;;;;;;;26.21;40.75;96795.89;108678;1266;25427;-76
2024/04/08 06:54:59;;;;;;;2.50;1.40;;;;;;;26.63;40.34;96796.55;108667;1271;22516;-76
2024/04/08 06:57:30;;;;;;;3.40;1.50;;;;;;;27.00;39.40;96801.91;108757;1270;23652;-75
2024/04/08 07:00:01;;;;;;;3.90;1.40;;;;;;;27.50;38.95;96792.52;108681;1272;23979;-76
2024/04/08 07:02:32;;;;;;;2.70;1.30;;;;;;;27.89;37.79;96798.95;108759;1271;23190;-76
2024/04/08 07:05:06;;;;;;;2.60;1.30;;;;;;;28.25;37.24;96796.52;108690;1271;22530;-75
2024/04/08 07:07:36;;;;;;;2.60;1.50;;;;;;;28.65;36.61;96790.20;108702;1272;23984;-75
2024/04/08 07:10:07;;;;;;;2.80;1.40;;;;;;;29.04;35.83;96794.59;108727;1269;25454;-76
2024/04/08 07:12:38;;;;;;;2.20;1.30;;;;;;;29.31;34.94;96792.64;108673;1269;22614;-76
2024/04/08 07:15:09;;;;;;;2.10;1.30;;;;;;;29.58;34.87;96793.70;108675;1272;25502;-76
2024/04/08 07:17:39;;;;;;;2.40;1.40;;;;;;;29.80;34.68;96800.15;108750;1272;22599;-76
2024/04/08 07:20:11;;;;;;;1.80;1.40;;;;;;;29.92;34.55;96798.45;108722;1272;22738;-75
2024/04/08 07:22:44;;;;;;;2.10;1.70;;;;;;;29.87;34.06;96798.16;108721;1272;22519;-75
2024/04/08 07:25:16;;;;;;;2.60;1.60;;;;;;;29.86;34.33;96797.45;108713;1267;22527;-76
2024/04/08 07:27:47;;;;;;;3.10;1.40;;;;;;;30.10;34.75;96802.48;108726;1272;25291;-76
2024/04/08 07:30:18;;;;;;;2.70;1.30;;;;;;;29.88;34.03;96801.73;108695;1266;22579;-76
2024/04/08 07:32:49;;;;;;;1.70;1.40;;;;;;;29.29;34.17;96798.41;108765;1270;22632;-76
2024/04/08 07:35:21;;;;;;;1.80;1.40;;;;;;;28.93;33.98;96800.23;108705;1271;24223;-76
2024/04/08 07:37:51;;;;;;;2.10;1.10;;;;;;;28.79;34.41;96796.05;108869;1267;22524;-76
2024/04/08 07:40:22;;;;;;;3.50;1.70;;;;;;;28.83;35.22;96798.67;108713;1269;22520;-76
2024/04/08 07:42:53;;;;;;;2.40;1.20;;;;;;;29.06;34.77;96802.94;108708;1269;26578;-75
2024/04/08 07:45:24;;;;;;;2.70;1.40;;;;;;;29.36;34.75;96800.96;108696;1271;22646;-76
2024/04/08 07:47:55;;;;;;;2.10;1.30;;;;;;;29.49;34.12;96798.89;108714;1269;24003;-75
2024/04/08 07:50:25;;;;;;;3.00;1.30;;;;;;;29.17;34.11;96800.23;108695;1272;25436;-75
2024/04/08 07:52:56;;;;;;;1.70;1.50;;;;;;;28.98;34.37;96807.09;108658;1267;23847;-75
2024/04/08 07:55:26;;;;;;;3.30;1.60;;;;;;;28.63;34.53;96803.61;108752;1272;25414;-75
2024/04/08 07:57:57;;;;;;;2.40;1.50;;;;;;;28.93;34.83;96802.49;108708;1272;25222;-75
2024/04/08 08:00:27;;;;;;;4.00;1.50;;;;;;;29.39;34.21;96803.84;108741;1265;22515;-75
2024/04/08 08:02:59;;;;;;;1.50;1.30;;;;;;;29.61;33.94;96798.63;108772;1269;22521;-75
2024/04/08 08:05:30;;;;;;;3.90;1.50;;;;;;;29.64;33.72;96800.16;108722;1267;22551;-75
2024/04/08 08:08:01;;;;;;;3.10;1.70;;;;;;;29.58;33.88;96796.59;108744;1267;22924;-75
2024/04/08 08:10:31;;;;;;;3.20;1.50;;;;;;;29.85;33.52;96800.91;108715;1272;27949;-75
2024/04/08 08:13:02;;;;;;;2.20;1.30;;;;;;;30.02;33.27;96796.66;108719;1272;26577;-75
2024/04/08 08:15:32;;;;;;;2.50;1.50;;;;;;;30.06;33.17;96796.97;108705;1272;24311;-75
2024/04/08 08:18:03;;;;;;;2.30;1.60;;;;;;;30.20;32.94;96795.62;108755;1272;23127;-75
2024/04/08 08:20:34;;;;;;;3.40;1.60;;;;;;;30.19;33.08;96794.23;108747;1272;25422;-75
2024/04/08 08:23:05;;;;;;;2.60;1.40;;;;;;;30.21;33.10;96799.52;108714;1269;25283;-75
2024/04/08 08:25:35;;;;;;;2.60;1.50;;;;;;;30.27;33.25;96798.38;108741;1266;22536;-75
2024/04/08 08:28:07;;;;;;;4.00;1.50;;;;;;;29.99;33.55;96795.74;108720;1267;24292;-75
2024/04/08 08:30:39;;;;;;;1.40;1.30;;;;;;;30.07;33.76;96790.86;108663;1272;22576;-75
2024/04/08 08:33:09;;;;;;;4.00;1.70;;;;;;;29.57;33.34;96792.30;108764;1270;22513;-75
2024/04/08 08:35:40;;;;;;;2.40;1.70;;;;;;;29.40;33.53;96790.95;108703;1268;22526;-75
2024/04/08 08:38:11;;;;;;;2.60;1.60;;;;;;;29.35;33.82;96789.41;108725;1272;22906;-75
2024/04/08 08:41:01;;;;;;;3.20;2.10;;;;;;;29.02;33.70;96789.38;108722;1267;23026;-75
2024/04/08 08:43:33;;;;;;;4.10;1.70;;;;;;;28.21;34.91;96790.73;108689;1273;22597;-75
2024/04/08 08:46:04;;;;;;;3.00;1.60;;;;;;;28.09;35.65;96784.96;108727;1272;25475;-75
2024/04/08 08:48:36;;;;;;;4.20;1.60;;;;;;;28.26;35.70;96793.25;108704;1272;22528;-75
2024/04/08 08:51:11;;;;;;;3.60;1.70;;;;;;;28.28;35.17;96791.54;108657;1267;22567;-75
2024/04/08 08:53:42;;;;;;;1.90;1.60;;;;;;;28.31;35.33;96785.01;108764;1272;22571;-75
2024/04/08 08:56:16;;;;;;;3.40;1.90;;;;;;;28.31;35.23;96791.00;108737;1269;22552;-75
2024/04/08 08:58:53;;;;;;;3.20;1.60;;;;;;;28.15;35.52;96788.16;108714;1272;26552;-75
2024/04/08 09:01:24;;;;;;;5.20;1.90;;;;;;;27.94;35.35;96785.02;108696;1272;25455;-75
2024/04/08 09:03:57;;;;;;;3.60;1.50;;;;;;;27.36;36.53;96785.31;108722;1270;22627;-75
2024/04/08 09:06:30;;;;;;;2.70;1.60;;;;;;;26.87;36.96;96786.84;108726;1268;22532;-75
2024/04/08 09:09:01;;;;;;;3.70;1.50;;;;;;;26.35;37.75;96782.66;108803;1272;22520;-75
2024/04/08 09:11:32;;;;;;;3.10;1.70;;;;;;;25.98;38.41;96779.30;108712;1272;23047;-75
2024/04/08 09:14:11;;;;;;;3.80;1.60;;;;;;;25.75;38.44;96783.66;108757;1270;22651;-75
2024/04/08 09:16:48;;;;;;;2.80;1.90;;;;;;;25.63;39.08;96783.98;108787;1266;22486;-75
2024/04/08 09:19:18;;;;;;;3.40;1.80;;;;;;;25.53;39.42;96779.66;108764;1272;23986;-75
2024/04/08 09:21:50;;;;;;;3.30;1.80;;;;;;;25.37;39.45;96779.27;108699;1272;22524;-75
2024/04/08 09:24:21;;;;;;;4.80;1.60;;;;;;;25.26;39.68;96776.02;108837;1272;23992;-75
2024/04/08 09:26:52;;;;;;;2.50;1.50;;;;;;;25.13;39.64;96771.91;108717;1268;25199;-75
2024/04/08 09:29:23;;;;;;;4.00;1.70;;;;;;;25.03;40.04;96772.55;108749;1272;22511;-75
2024/04/08 09:31:53;;;;;;;2.00;1.30;;;;;;;24.91;40.27;96771.30;108703;1272;22552;-75
2024/04/08 09:34:24;;;;;;;3.30;1.50;;;;;;;24.76;40.34;96769.77;108713;1267;25553;-75
2024/04/08 09:36:57;;;;;;;2.70;1.70;;;;;;;24.73;40.34;96770.65;108706;1272;22789;-75
2024/04/08 09:39:29;;;;;;;3.20;1.40;;;;;;;24.71;40.14;96771.71;108755;1272;22590;-75
2024/04/08 09:42:01;;;;;;;2.40;1.50;;;;;;;24.64;39.91;96766.49;108668;1272;26434;-75
2024/04/08 09:44:35;;;;;;;2.40;1.50;;;;;;;24.45;39.85;96766.77;108699;1272;22550;-75
2024/04/08 09:47:09;;;;;;;2.10;1.30;;;;;;;24.27;39.04;96757.48;108744;1272;25014;-75
2024/04/08 09:49:41;;;;;;;2.10;1.40;;;;;;;24.21;39.05;96758.23;108746;1272;22634;-75
2024/04/08 09:52:14;;;;;;;3.20;1.60;;;;;;;24.22;39.75;96756.55;108696;1249;22639;-75
2024/04/08 09:54:45;;;;;;;1.40;1.20;;;;;;;24.36;39.71;96755.55;108667;1272;22520;-75
2024/04/08 09:57:20;;;;;;;2.10;1.00;;;;;;;24.49;40.14;96747.39;108774;1272;22529;-75
2024/04/08 09:59:56;;;;;;;2.10;1.40;;;;;;;24.67;38.71;96749.81;108747;1269;22509;-75
2024/04/08 10:02:37;;;;;;;3.40;1.20;;;;;;;24.65;38.08;96745.92;108738;1250;22519;-75
2024/04/08 10:05:08;;;;;;;2.80;1.40;;;;;;;24.63;38.14;96744.57;108738;1269;24021;-75
2024/04/08 10:07:39;;;;;;;4.40;1.50;;;;;;;24.61;37.94;96741.96;108732;1272;25414;-75
2024/04/08 10:10:12;;;;;;;2.70;1.40;;;;;;;24.56;38.05;96737.17;108744;1267;23821;-75
2024/04/08 10:12:44;;;;;;;2.20;1.50;;;;;;;24.49;38.04;96742.81;108778;1272;22568;-75
2024/04/08 10:15:16;;;;;;;1.80;1.40;;;;;;;24.47;38.41;96739.60;108858;1270;24945;-75
2024/04/08 10:17:49;;;;;;;2.40;1.30;;;;;;;24.52;38.69;96736.91;108918;1272;23827;-75
2024/04/08 10:20:22;;;;;;;2.40;1.50;;;;;;;24.58;39.12;96732.33;108870;1272;22524;-75
2024/04/08 10:22:53;;;;;;;2.30;1.40;;;;;;;24.66;39.12;96734.39;108828;1272;22534;-75
2024/04/08 10:25:37;;;;;;;1.80;1.50;;;;;;;24.67;39.25;96731.14;108743;1272;22527;-75
2024/04/08 10:28:09;;;;;;;3.50;1.60;;;;;;;24.68;40.04;96728.61;108838;1250;22523;-75
2024/04/08 10:30:42;;;;;;;3.50;1.30;;;;;;;24.86;40.05;96721.63;108723;1272;22828;-75
2024/04/08 10:33:13;;;;;;;4.30;1.40;;;;;;;24.92;39.63;96713.80;108766;1272;22599;-75
2024/04/08 10:35:46;;;;;;;5.40;1.50;;;;;;;24.88;40.03;96710.42;108720;1267;25570;-75
2024/04/08 10:38:18;;;;;;;2.20;1.30;;;;;;;24.92;40.07;96705.82;108726;1250;23353;-75
2024/04/08 10:40:49;;;;;;;2.40;1.60;;;;;;;24.99;40.82;96702.35;108759;1272;23989;-75
2024/04/08 10:43:22;;;;;;;2.80;1.50;;;;;;;25.13;39.77;96704.85;108746;1272;25302;-75
2024/04/08 10:45:54;;;;;;;3.70;1.30;;;;;;;25.05;38.22;96700.89;108769;1267;22523;-75
2024/04/08 10:48:25;;;;;;;1.90;1.00;;;;;;;25.07;38.23;96700.30;108876;1272;24213;-75
2024/04/08 10:50:57;;;;;;;1.10;1.00;;;;;;;24.98;36.69;96697.14;108627;1272;22550;-75
2024/04/08 10:53:29;;;;;;;2.10;0.80;;;;;;;25.04;37.51;96697.23;108794;1270;22551;-75
2024/04/08 10:56:00;;;;;;;2.90;1.40;;;;;;;25.10;36.90;96697.00;108727;1272;23193;-75
2024/04/08 10:58:31;;;;;;;1.70;1.30;;;;;;;25.14;37.59;96698.20;108774;1272;22627;-75
2024/04/08 11:01:04;;;;;;;1.60;0.90;;;;;;;25.20;37.52;96691.77;108687;1272;22535;-75
2024/04/08 11:03:35;;;;;;;3.70;1.00;;;;;;;25.29;37.68;96689.77;108754;1271;25404;-75
2024/04/08 11:06:06;;;;;;;3.10;1.40;;;;;;;25.36;37.52;96691.70;108708;1272;22522;-75
2024/04/08 11:08:36;;;;;;;1.90;1.00;;;;;;;25.39;37.49;96687.77;108784;1272;23300;-75
2024/04/08 11:11:08;;;;;;;2.20;1.10;;;;;;;25.42;37.61;96682.14;108734;1272;22519;-75
2024/04/08 11:13:38;;;;;;;3.10;1.00;;;;;;;25.39;37.31;96680.02;108776;1267;22533;-75
2024/04/08 11:16:10;;;;;;;2.90;1.10;;;;;;;25.38;37.54;96681.72;108730;1272;24348;-75
2024/04/08 11:18:43;;;;;;;2.30;1.20;;;;;;;25.35;36.82;96683.39;108800;1266;25097;-75
2024/04/08 11:21:15;;;;;;;2.30;1.10;;;;;;;25.29;36.72;96678.36;108760;1267;22558;-75
2024/04/08 11:23:48;;;;;;;2.10;1.30;;;;;;;25.32;36.15;96671.71;108774;1272;22638;-75
2024/04/08 11:26:19;;;;;;;2.80;1.10;;;;;;;25.35;36.94;96667.95;108718;1272;22707;-75
2024/04/08 11:28:50;;;;;;;2.10;1.00;;;;;;;25.41;36.80;96665.70;108705;1271;22572;-75
2024/04/08 11:31:23;;;;;;;3.30;1.30;;;;;;;25.48;36.32;96663.35;108750;1272;24967;-75
2024/04/08 11:33:54;;;;;;;2.20;0.90;;;;;;;25.54;36.33;96663.95;108656;1266;22519;-75
2024/04/08 11:36:24;;;;;;;2.30;1.00;;;;;;;25.56;35.89;96658.14;108767;1265;25427;-75
2024/04/08 11:38:56;;;;;;;2.50;1.10;;;;;;;25.49;34.95;96655.84;108774;1266;25241;-75
2024/04/08 11:41:27;;;;;;;1.70;1.00;;;;;;;25.45;35.53;96649.05;108790;1271;22535;-75
2024/04/08 11:43:57;;;;;;;4.10;1.20;;;;;;;25.51;34.72;96652.67;108683;1261;23350;-75